sensor_id;sensor_type;location;lat;lon;timestamp;temperature;humidity
24614;DHT22;12760;46.296;25.290;2022-07-23T00:00:14;23.50;87.00
24614;DHT22;12760;46.296;25.290;2022-07-23T00:02:40;23.40;87.10
24614;DHT22;12760;46.296;25.290;2022-07-23T00:05:06;23.30;87.30
24614;DHT22;12760;46.296;25.290;2022-07-23T00:07:33;23.40;86.90
24614;DHT22;12760;46.296;25.290;2022-07-23T00:09:59;23.30;87.60
24614;DHT22;12760;46.296;25.290;2022-07-23T00:12:24;23.30;88.00
24614;DHT22;12760;46.296;25.290;2022-07-23T00:14:50;23.20;88.00
24614;DHT22;12760;46.296;25.290;2022-07-23T00:17:16;23.20;88.40
24614;DHT22;12760;46.296;25.290;2022-07-23T00:19:42;23.10;88.30
24614;DHT22;12760;46.296;25.290;2022-07-23T00:22:07;23.10;88.20
24614;DHT22;12760;46.296;25.290;2022-07-23T00:24:33;23.10;87.80
24614;DHT22;12760;46.296;25.290;2022-07-23T00:26:59;23.10;87.90
24614;DHT22;12760;46.296;25.290;2022-07-23T00:29:24;23.10;88.20
24614;DHT22;12760;46.296;25.290;2022-07-23T00:31:50;23.10;87.90
24614;DHT22;12760;46.296;25.290;2022-07-23T00:34:16;23.00;88.50
24614;DHT22;12760;46.296;25.290;2022-07-23T00:36:42;22.90;88.70
24614;DHT22;12760;46.296;25.290;2022-07-23T00:39:07;23.00;88.20
24614;DHT22;12760;46.296;25.290;2022-07-23T00:41:33;22.90;88.50
24614;DHT22;12760;46.296;25.290;2022-07-23T00:44:16;22.80;88.70
24614;DHT22;12760;46.296;25.290;2022-07-23T00:46:50;22.90;88.60
24614;DHT22;12760;46.296;25.290;2022-07-23T00:49:20;22.80;89.00
24614;DHT22;12760;46.296;25.290;2022-07-23T00:51:46;22.80;88.80
24614;DHT22;12760;46.296;25.290;2022-07-23T00:54:12;22.80;89.20
24614;DHT22;12760;46.296;25.290;2022-07-23T00:56:38;22.70;89.50
24614;DHT22;12760;46.296;25.290;2022-07-23T00:59:04;22.70;89.50
24614;DHT22;12760;46.296;25.290;2022-07-23T01:01:30;22.80;89.30
24614;DHT22;12760;46.296;25.290;2022-07-23T01:03:56;22.80;89.30
24614;DHT22;12760;46.296;25.290;2022-07-23T01:06:22;22.80;89.60
24614;DHT22;12760;46.296;25.290;2022-07-23T01:08:48;22.70;89.70
24614;DHT22;12760;46.296;25.290;2022-07-23T01:11:14;22.60;90.10
24614;DHT22;12760;46.296;25.290;2022-07-23T01:13:43;22.50;90.00
24614;DHT22;12760;46.296;25.290;2022-07-23T01:16:09;22.40;90.20
24614;DHT22;12760;46.296;25.290;2022-07-23T01:18:35;22.40;90.40
24614;DHT22;12760;46.296;25.290;2022-07-23T01:21:00;22.40;90.30
24614;DHT22;12760;46.296;25.290;2022-07-23T01:23:26;22.30;90.60
24614;DHT22;12760;46.296;25.290;2022-07-23T01:25:53;22.10;90.80
24614;DHT22;12760;46.296;25.290;2022-07-23T01:28:19;22.20;90.70
24614;DHT22;12760;46.296;25.290;2022-07-23T01:30:46;22.20;90.80
24614;DHT22;12760;46.296;25.290;2022-07-23T01:33:12;22.20;90.80
24614;DHT22;12760;46.296;25.290;2022-07-23T01:35:37;22.10;90.80
24614;DHT22;12760;46.296;25.290;2022-07-23T01:38:03;22.00;91.00
24614;DHT22;12760;46.296;25.290;2022-07-23T01:40:29;22.00;90.90
24614;DHT22;12760;46.296;25.290;2022-07-23T01:42:55;21.90;91.00
24614;DHT22;12760;46.296;25.290;2022-07-23T01:45:20;21.90;91.20
24614;DHT22;12760;46.296;25.290;2022-07-23T01:47:46;21.80;91.20
24614;DHT22;12760;46.296;25.290;2022-07-23T01:50:12;21.80;91.20
24614;DHT22;12760;46.296;25.290;2022-07-23T01:52:38;21.90;91.10
24614;DHT22;12760;46.296;25.290;2022-07-23T01:55:04;22.00;91.00
24614;DHT22;12760;46.296;25.290;2022-07-23T01:57:31;22.00;91.00
24614;DHT22;12760;46.296;25.290;2022-07-23T01:59:57;22.00;91.10
24614;DHT22;12760;46.296;25.290;2022-07-23T02:02:23;21.90;91.20
24614;DHT22;12760;46.296;25.290;2022-07-23T02:04:49;22.00;91.10
24614;DHT22;12760;46.296;25.290;2022-07-23T02:07:14;22.00;91.20
24614;DHT22;12760;46.296;25.290;2022-07-23T02:09:40;21.90;91.20
24614;DHT22;12760;46.296;25.290;2022-07-23T02:12:06;21.90;91.30
24614;DHT22;12760;46.296;25.290;2022-07-23T02:14:32;21.90;91.20
24614;DHT22;12760;46.296;25.290;2022-07-23T02:16:58;21.80;91.50
24614;DHT22;12760;46.296;25.290;2022-07-23T02:19:23;21.70;91.70
24614;DHT22;12760;46.296;25.290;2022-07-23T02:21:49;21.60;91.70
24614;DHT22;12760;46.296;25.290;2022-07-23T02:24:16;21.60;91.80
24614;DHT22;12760;46.296;25.290;2022-07-23T02:26:42;21.60;91.70
24614;DHT22;12760;46.296;25.290;2022-07-23T02:29:08;21.60;91.90
24614;DHT22;12760;46.296;25.290;2022-07-23T02:31:34;21.60;91.90
24614;DHT22;12760;46.296;25.290;2022-07-23T02:34:00;21.60;91.80
24614;DHT22;12760;46.296;25.290;2022-07-23T02:36:26;21.60;91.90
24614;DHT22;12760;46.296;25.290;2022-07-23T02:38:52;21.50;91.80
24614;DHT22;12760;46.296;25.290;2022-07-23T02:41:18;21.50;92.00
24614;DHT22;12760;46.296;25.290;2022-07-23T02:43:44;21.60;92.00
24614;DHT22;12760;46.296;25.290;2022-07-23T02:46:09;21.60;91.80
24614;DHT22;12760;46.296;25.290;2022-07-23T02:48:35;21.60;92.00
24614;DHT22;12760;46.296;25.290;2022-07-23T02:51:01;21.50;92.30
24614;DHT22;12760;46.296;25.290;2022-07-23T02:53:27;21.50;92.10
24614;DHT22;12760;46.296;25.290;2022-07-23T02:55:52;21.50;92.40
24614;DHT22;12760;46.296;25.290;2022-07-23T02:58:18;21.50;92.40
24614;DHT22;12760;46.296;25.290;2022-07-23T03:00:44;21.40;92.40
24614;DHT22;12760;46.296;25.290;2022-07-23T03:03:10;21.30;92.50
24614;DHT22;12760;46.296;25.290;2022-07-23T03:05:36;21.30;92.50
24614;DHT22;12760;46.296;25.290;2022-07-23T03:08:02;21.40;92.40
24614;DHT22;12760;46.296;25.290;2022-07-23T03:10:28;21.30;92.50
24614;DHT22;12760;46.296;25.290;2022-07-23T03:12:53;21.30;92.60
24614;DHT22;12760;46.296;25.290;2022-07-23T03:15:19;21.20;92.60
24614;DHT22;12760;46.296;25.290;2022-07-23T03:17:45;21.20;92.70
24614;DHT22;12760;46.296;25.290;2022-07-23T03:20:11;21.20;92.80
24614;DHT22;12760;46.296;25.290;2022-07-23T03:22:36;21.10;92.90
24614;DHT22;12760;46.296;25.290;2022-07-23T03:25:02;21.10;93.00
24614;DHT22;12760;46.296;25.290;2022-07-23T03:27:29;21.10;93.10
24614;DHT22;12760;46.296;25.290;2022-07-23T03:29:58;21.00;93.20
24614;DHT22;12760;46.296;25.290;2022-07-23T03:32:24;21.00;93.20
24614;DHT22;12760;46.296;25.290;2022-07-23T03:34:51;21.10;93.20
24614;DHT22;12760;46.296;25.290;2022-07-23T03:37:17;21.10;93.20
24614;DHT22;12760;46.296;25.290;2022-07-23T03:39:43;21.20;93.00
24614;DHT22;12760;46.296;25.290;2022-07-23T03:42:09;21.20;93.10
24614;DHT22;12760;46.296;25.290;2022-07-23T03:44:35;21.20;93.10
24614;DHT22;12760;46.296;25.290;2022-07-23T03:47:03;21.10;93.20
24614;DHT22;12760;46.296;25.290;2022-07-23T03:49:29;21.20;93.20
24614;DHT22;12760;46.296;25.290;2022-07-23T03:51:54;21.20;93.20
24614;DHT22;12760;46.296;25.290;2022-07-23T03:54:20;21.20;93.30
24614;DHT22;12760;46.296;25.290;2022-07-23T03:56:46;21.00;93.50
24614;DHT22;12760;46.296;25.290;2022-07-23T03:59:12;21.00;93.60
24614;DHT22;12760;46.296;25.290;2022-07-23T04:01:38;21.10;93.50
24614;DHT22;12760;46.296;25.290;2022-07-23T04:04:03;21.10;93.70
24614;DHT22;12760;46.296;25.290;2022-07-23T04:06:29;21.10;93.70
24614;DHT22;12760;46.296;25.290;2022-07-23T04:08:55;21.20;93.50
24614;DHT22;12760;46.296;25.290;2022-07-23T04:11:21;21.20;93.70
24614;DHT22;12760;46.296;25.290;2022-07-23T04:13:47;21.20;93.70
24614;DHT22;12760;46.296;25.290;2022-07-23T04:16:12;21.20;94.00
24614;DHT22;12760;46.296;25.290;2022-07-23T04:18:38;21.30;93.60
24614;DHT22;12760;46.296;25.290;2022-07-23T04:21:04;21.40;93.60
24614;DHT22;12760;46.296;25.290;2022-07-23T04:23:30;21.40;93.70
24614;DHT22;12760;46.296;25.290;2022-07-23T04:25:55;21.40;93.50
24614;DHT22;12760;46.296;25.290;2022-07-23T04:28:21;21.40;93.60
24614;DHT22;12760;46.296;25.290;2022-07-23T04:30:47;21.40;93.80
24614;DHT22;12760;46.296;25.290;2022-07-23T04:33:13;21.40;93.90
24614;DHT22;12760;46.296;25.290;2022-07-23T04:35:38;21.50;94.00
24614;DHT22;12760;46.296;25.290;2022-07-23T04:38:04;21.60;94.00
24614;DHT22;12760;46.296;25.290;2022-07-23T04:40:30;21.50;94.10
24614;DHT22;12760;46.296;25.290;2022-07-23T04:42:56;21.40;94.40
24614;DHT22;12760;46.296;25.290;2022-07-23T04:45:22;21.40;94.30
24614;DHT22;12760;46.296;25.290;2022-07-23T04:47:49;21.50;94.10
24614;DHT22;12760;46.296;25.290;2022-07-23T04:50:15;21.50;94.30
24614;DHT22;12760;46.296;25.290;2022-07-23T04:52:47;21.50;94.50
24614;DHT22;12760;46.296;25.290;2022-07-23T04:55:14;21.60;94.20
24614;DHT22;12760;46.296;25.290;2022-07-23T04:57:40;21.70;94.20
24614;DHT22;12760;46.296;25.290;2022-07-23T05:00:06;21.70;94.30
24614;DHT22;12760;46.296;25.290;2022-07-23T05:02:32;21.80;94.30
24614;DHT22;12760;46.296;25.290;2022-07-23T05:04:58;21.80;94.40
24614;DHT22;12760;46.296;25.290;2022-07-23T05:07:23;21.80;94.30
24614;DHT22;12760;46.296;25.290;2022-07-23T05:09:49;21.90;94.30
24614;DHT22;12760;46.296;25.290;2022-07-23T05:12:15;22.00;94.20
24614;DHT22;12760;46.296;25.290;2022-07-23T05:14:41;22.10;94.30
24614;DHT22;12760;46.296;25.290;2022-07-23T05:17:08;22.10;94.10
24614;DHT22;12760;46.296;25.290;2022-07-23T05:19:34;22.10;94.20
24614;DHT22;12760;46.296;25.290;2022-07-23T05:22:00;22.20;94.20
24614;DHT22;12760;46.296;25.290;2022-07-23T05:24:26;22.30;94.10
24614;DHT22;12760;46.296;25.290;2022-07-23T05:26:52;22.30;94.10
24614;DHT22;12760;46.296;25.290;2022-07-23T05:29:18;22.30;94.40
24614;DHT22;12760;46.296;25.290;2022-07-23T05:31:44;22.40;94.30
24614;DHT22;12760;46.296;25.290;2022-07-23T05:34:09;22.50;94.20
24614;DHT22;12760;46.296;25.290;2022-07-23T05:36:35;22.70;92.60
24614;DHT22;12760;46.296;25.290;2022-07-23T05:39:02;22.80;93.80
24614;DHT22;12760;46.296;25.290;2022-07-23T05:41:28;22.90;93.80
24614;DHT22;12760;46.296;25.290;2022-07-23T05:43:54;23.00;93.70
24614;DHT22;12760;46.296;25.290;2022-07-23T05:46:20;23.20;93.50
24614;DHT22;12760;46.296;25.290;2022-07-23T05:48:46;23.50;93.30
24614;DHT22;12760;46.296;25.290;2022-07-23T05:51:20;23.70;93.30
24614;DHT22;12760;46.296;25.290;2022-07-23T05:53:46;23.90;92.80
24614;DHT22;12760;46.296;25.290;2022-07-23T05:56:11;24.20;92.40
24614;DHT22;12760;46.296;25.290;2022-07-23T05:58:37;24.40;92.20
24614;DHT22;12760;46.296;25.290;2022-07-23T06:01:03;24.60;91.60
24614;DHT22;12760;46.296;25.290;2022-07-23T06:03:29;24.80;91.30
24614;DHT22;12760;46.296;25.290;2022-07-23T06:05:54;25.10;91.20
24614;DHT22;12760;46.296;25.290;2022-07-23T06:08:20;25.30;91.20
24614;DHT22;12760;46.296;25.290;2022-07-23T06:10:46;25.50;90.90
24614;DHT22;12760;46.296;25.290;2022-07-23T06:13:11;25.70;90.80
24614;DHT22;12760;46.296;25.290;2022-07-23T06:15:37;25.90;90.30
24614;DHT22;12760;46.296;25.290;2022-07-23T06:18:03;26.00;90.40
24614;DHT22;12760;46.296;25.290;2022-07-23T06:20:29;26.10;89.50
24614;DHT22;12760;46.296;25.290;2022-07-23T06:22:54;26.30;89.20
24614;DHT22;12760;46.296;25.290;2022-07-23T06:25:20;26.50;89.20
24614;DHT22;12760;46.296;25.290;2022-07-23T06:27:47;26.70;88.30
24614;DHT22;12760;46.296;25.290;2022-07-23T06:30:13;26.90;88.10
24614;DHT22;12760;46.296;25.290;2022-07-23T06:32:39;27.10;86.70
24614;DHT22;12760;46.296;25.290;2022-07-23T06:35:05;27.40;84.80
24614;DHT22;12760;46.296;25.290;2022-07-23T06:37:31;27.60;85.00
24614;DHT22;12760;46.296;25.290;2022-07-23T06:39:56;27.80;83.80
24614;DHT22;12760;46.296;25.290;2022-07-23T06:42:22;27.90;84.70
24614;DHT22;12760;46.296;25.290;2022-07-23T06:44:48;28.00;84.00
24614;DHT22;12760;46.296;25.290;2022-07-23T06:47:13;28.10;84.50
24614;DHT22;12760;46.296;25.290;2022-07-23T06:49:39;28.20;83.30
24614;DHT22;12760;46.296;25.290;2022-07-23T06:52:07;28.40;83.60
24614;DHT22;12760;46.296;25.290;2022-07-23T06:54:33;28.70;82.80
24614;DHT22;12760;46.296;25.290;2022-07-23T06:56:59;28.80;82.00
24614;DHT22;12760;46.296;25.290;2022-07-23T06:59:25;29.00;82.00
24614;DHT22;12760;46.296;25.290;2022-07-23T07:01:50;29.30;81.00
24614;DHT22;12760;46.296;25.290;2022-07-23T07:04:16;29.50;80.30
24614;DHT22;12760;46.296;25.290;2022-07-23T07:06:42;29.70;80.80
24614;DHT22;12760;46.296;25.290;2022-07-23T07:09:07;29.90;80.70
24614;DHT22;12760;46.296;25.290;2022-07-23T07:11:33;30.00;80.20
24614;DHT22;12760;46.296;25.290;2022-07-23T07:13:59;30.10;80.60
24614;DHT22;12760;46.296;25.290;2022-07-23T07:16:25;30.30;80.50
24614;DHT22;12760;46.296;25.290;2022-07-23T07:18:50;30.40;80.20
24614;DHT22;12760;46.296;25.290;2022-07-23T07:21:16;30.70;79.90
24614;DHT22;12760;46.296;25.290;2022-07-23T07:23:42;30.70;78.50
24614;DHT22;12760;46.296;25.290;2022-07-23T07:26:07;30.80;77.20
24614;DHT22;12760;46.296;25.290;2022-07-23T07:28:33;30.90;76.40
24614;DHT22;12760;46.296;25.290;2022-07-23T07:30:59;31.00;75.30
24614;DHT22;12760;46.296;25.290;2022-07-23T07:33:24;31.10;74.90
24614;DHT22;12760;46.296;25.290;2022-07-23T07:35:50;31.20;74.30
24614;DHT22;12760;46.296;25.290;2022-07-23T07:38:16;31.40;74.50
24614;DHT22;12760;46.296;25.290;2022-07-23T07:40:42;31.70;74.40
24614;DHT22;12760;46.296;25.290;2022-07-23T07:43:07;31.90;73.70
24614;DHT22;12760;46.296;25.290;2022-07-23T07:45:33;32.00;73.50
24614;DHT22;12760;46.296;25.290;2022-07-23T07:47:59;32.10;73.10
24614;DHT22;12760;46.296;25.290;2022-07-23T07:50:25;32.20;73.90
24614;DHT22;12760;46.296;25.290;2022-07-23T07:52:50;32.10;71.70
24614;DHT22;12760;46.296;25.290;2022-07-23T07:55:17;32.30;72.70
24614;DHT22;12760;46.296;25.290;2022-07-23T07:57:43;32.50;71.90
24614;DHT22;12760;46.296;25.290;2022-07-23T08:00:10;32.70;71.50
24614;DHT22;12760;46.296;25.290;2022-07-23T08:02:43;32.80;70.10
24614;DHT22;12760;46.296;25.290;2022-07-23T08:05:10;33.00;68.80
24614;DHT22;12760;46.296;25.290;2022-07-23T08:07:36;33.10;68.10
24614;DHT22;12760;46.296;25.290;2022-07-23T08:10:05;33.10;67.50
24614;DHT22;12760;46.296;25.290;2022-07-23T08:12:58;33.20;67.50
24614;DHT22;12760;46.296;25.290;2022-07-23T08:15:26;33.40;67.60
24614;DHT22;12760;46.296;25.290;2022-07-23T08:17:52;33.60;67.10
24614;DHT22;12760;46.296;25.290;2022-07-23T08:20:19;33.70;65.40
24614;DHT22;12760;46.296;25.290;2022-07-23T08:23:00;33.80;64.10
24614;DHT22;12760;46.296;25.290;2022-07-23T08:25:28;33.90;63.90
24614;DHT22;12760;46.296;25.290;2022-07-23T08:27:54;34.00;64.10
24614;DHT22;12760;46.296;25.290;2022-07-23T08:30:21;34.10;63.80
24614;DHT22;12760;46.296;25.290;2022-07-23T08:32:56;34.20;63.70
24614;DHT22;12760;46.296;25.290;2022-07-23T08:35:33;33.90;61.50
24614;DHT22;12760;46.296;25.290;2022-07-23T08:38:00;33.70;61.60
24614;DHT22;12760;46.296;25.290;2022-07-23T08:40:28;33.70;61.50
24614;DHT22;12760;46.296;25.290;2022-07-23T08:42:54;33.80;62.40
24614;DHT22;12760;46.296;25.290;2022-07-23T08:45:21;34.00;62.00
24614;DHT22;12760;46.296;25.290;2022-07-23T08:47:57;34.10;61.40
24614;DHT22;12760;46.296;25.290;2022-07-23T08:50:26;34.20;62.60
24614;DHT22;12760;46.296;25.290;2022-07-23T08:52:54;34.20;63.70
24614;DHT22;12760;46.296;25.290;2022-07-23T08:55:22;34.20;63.30
24614;DHT22;12760;46.296;25.290;2022-07-23T08:57:50;34.20;63.90
24614;DHT22;12760;46.296;25.290;2022-07-23T09:00:17;34.20;64.10
24614;DHT22;12760;46.296;25.290;2022-07-23T09:02:44;34.20;63.20
24614;DHT22;12760;46.296;25.290;2022-07-23T09:05:11;34.30;63.00
24614;DHT22;12760;46.296;25.290;2022-07-23T09:13:39;34.90;62.00
24614;DHT22;12760;46.296;25.290;2022-07-23T09:16:11;35.00;61.10
24614;DHT22;12760;46.296;25.290;2022-07-23T09:18:48;35.10;61.60
24614;DHT22;12760;46.296;25.290;2022-07-23T09:21:24;35.10;61.20
24614;DHT22;12760;46.296;25.290;2022-07-23T09:24:13;35.10;60.80
24614;DHT22;12760;46.296;25.290;2022-07-23T09:26:45;34.90;60.40
24614;DHT22;12760;46.296;25.290;2022-07-23T09:29:20;35.00;61.40
24614;DHT22;12760;46.296;25.290;2022-07-23T09:31:53;34.90;61.30
24614;DHT22;12760;46.296;25.290;2022-07-23T09:34:29;35.10;61.80
24614;DHT22;12760;46.296;25.290;2022-07-23T09:37:08;35.30;61.70
24614;DHT22;12760;46.296;25.290;2022-07-23T09:39:33;35.40;60.50
24614;DHT22;12760;46.296;25.290;2022-07-23T09:42:22;35.40;60.20
24614;DHT22;12760;46.296;25.290;2022-07-23T09:44:51;35.50;60.40
24614;DHT22;12760;46.296;25.290;2022-07-23T09:47:18;35.40;60.80
24614;DHT22;12760;46.296;25.290;2022-07-23T09:52:51;35.20;60.30
24614;DHT22;12760;46.296;25.290;2022-07-23T09:55:18;35.30;61.30
24614;DHT22;12760;46.296;25.290;2022-07-23T09:57:45;35.40;60.40
24614;DHT22;12760;46.296;25.290;2022-07-23T10:00:15;35.40;60.00
24614;DHT22;12760;46.296;25.290;2022-07-23T10:02:41;35.20;60.20
24614;DHT22;12760;46.296;25.290;2022-07-23T10:05:07;35.40;61.00
24614;DHT22;12760;46.296;25.290;2022-07-23T10:07:39;35.60;60.10
24614;DHT22;12760;46.296;25.290;2022-07-23T10:10:06;35.60;60.00
24614;DHT22;12760;46.296;25.290;2022-07-23T10:12:32;35.70;60.30
24614;DHT22;12760;46.296;25.290;2022-07-23T10:14:58;35.90;59.70
24614;DHT22;12760;46.296;25.290;2022-07-23T10:17:27;36.10;59.80
24614;DHT22;12760;46.296;25.290;2022-07-23T10:19:53;36.30;59.80
24614;DHT22;12760;46.296;25.290;2022-07-23T10:22:30;36.30;59.30
24614;DHT22;12760;46.296;25.290;2022-07-23T10:28:18;36.50;59.40
24614;DHT22;12760;46.296;25.290;2022-07-23T10:33:56;36.20;59.00
24614;DHT22;12760;46.296;25.290;2022-07-23T10:36:47;36.40;59.20
24614;DHT22;12760;46.296;25.290;2022-07-23T10:39:19;36.40;58.80
24614;DHT22;12760;46.296;25.290;2022-07-23T10:41:47;36.20;57.30
24614;DHT22;12760;46.296;25.290;2022-07-23T10:44:20;36.30;57.90
24614;DHT22;12760;46.296;25.290;2022-07-23T10:47:00;36.30;58.10
24614;DHT22;12760;46.296;25.290;2022-07-23T10:49:44;36.50;58.10
24614;DHT22;12760;46.296;25.290;2022-07-23T10:57:14;36.40;57.00
24614;DHT22;12760;46.296;25.290;2022-07-23T11:02:24;36.50;57.60
24614;DHT22;12760;46.296;25.290;2022-07-23T11:04:52;36.50;58.20
24614;DHT22;12760;46.296;25.290;2022-07-23T11:07:19;36.70;57.70
24614;DHT22;12760;46.296;25.290;2022-07-23T11:09:45;36.60;55.30
24614;DHT22;12760;46.296;25.290;2022-07-23T11:17:26;36.60;57.20
24614;DHT22;12760;46.296;25.290;2022-07-23T11:20:15;36.50;56.30
24614;DHT22;12760;46.296;25.290;2022-07-23T11:25:12;36.50;55.90
24614;DHT22;12760;46.296;25.290;2022-07-23T11:27:45;36.50;55.70
24614;DHT22;12760;46.296;25.290;2022-07-23T11:30:38;36.50;54.80
24614;DHT22;12760;46.296;25.290;2022-07-23T11:35:35;36.50;56.30
24614;DHT22;12760;46.296;25.290;2022-07-23T11:38:16;36.50;55.80
24614;DHT22;12760;46.296;25.290;2022-07-23T11:40:45;36.60;56.30
24614;DHT22;12760;46.296;25.290;2022-07-23T11:43:12;36.70;53.90
24614;DHT22;12760;46.296;25.290;2022-07-23T11:45:44;36.70;55.70
24614;DHT22;12760;46.296;25.290;2022-07-23T11:50:43;36.70;54.90
24614;DHT22;12760;46.296;25.290;2022-07-23T11:53:09;36.70;55.00
24614;DHT22;12760;46.296;25.290;2022-07-23T11:55:35;36.60;55.90
24614;DHT22;12760;46.296;25.290;2022-07-23T11:58:02;36.70;56.60
24614;DHT22;12760;46.296;25.290;2022-07-23T12:00:29;36.70;56.40
24614;DHT22;12760;46.296;25.290;2022-07-23T12:02:58;36.70;56.20
24614;DHT22;12760;46.296;25.290;2022-07-23T12:05:29;36.80;56.40
24614;DHT22;12760;46.296;25.290;2022-07-23T12:07:56;36.80;55.40
24614;DHT22;12760;46.296;25.290;2022-07-23T12:13:01;36.90;56.50
24614;DHT22;12760;46.296;25.290;2022-07-23T12:15:33;36.80;54.50
24614;DHT22;12760;46.296;25.290;2022-07-23T12:18:01;36.80;54.80
24614;DHT22;12760;46.296;25.290;2022-07-23T12:20:30;36.80;54.20
24614;DHT22;12760;46.296;25.290;2022-07-23T12:23:00;36.90;53.60
24614;DHT22;12760;46.296;25.290;2022-07-23T12:25:29;36.90;54.10
24614;DHT22;12760;46.296;25.290;2022-07-23T12:28:11;36.90;54.30
24614;DHT22;12760;46.296;25.290;2022-07-23T12:30:43;36.80;53.50
24614;DHT22;12760;46.296;25.290;2022-07-23T12:33:12;36.90;53.90
24614;DHT22;12760;46.296;25.290;2022-07-23T12:35:42;37.00;54.00
24614;DHT22;12760;46.296;25.290;2022-07-23T12:38:12;37.00;53.10
24614;DHT22;12760;46.296;25.290;2022-07-23T12:40:47;37.10;51.30
24614;DHT22;12760;46.296;25.290;2022-07-23T12:43:26;37.20;51.30
24614;DHT22;12760;46.296;25.290;2022-07-23T12:48:30;37.20;53.30
24614;DHT22;12760;46.296;25.290;2022-07-23T12:50:58;37.20;53.20
24614;DHT22;12760;46.296;25.290;2022-07-23T12:56:05;37.10;53.30
24614;DHT22;12760;46.296;25.290;2022-07-23T12:58:44;37.00;52.90
24614;DHT22;12760;46.296;25.290;2022-07-23T13:01:31;37.00;52.40
24614;DHT22;12760;46.296;25.290;2022-07-23T13:04:00;37.00;53.00
24614;DHT22;12760;46.296;25.290;2022-07-23T13:06:31;37.00;53.00
24614;DHT22;12760;46.296;25.290;2022-07-23T13:08:57;37.10;53.00
24614;DHT22;12760;46.296;25.290;2022-07-23T13:11:23;37.10;52.90
24614;DHT22;12760;46.296;25.290;2022-07-23T13:13:49;37.10;52.90
24614;DHT22;12760;46.296;25.290;2022-07-23T13:16:15;37.10;52.90
24614;DHT22;12760;46.296;25.290;2022-07-23T13:18:42;37.20;52.30
24614;DHT22;12760;46.296;25.290;2022-07-23T13:21:08;37.30;53.20
24614;DHT22;12760;46.296;25.290;2022-07-23T13:23:34;37.20;52.00
24614;DHT22;12760;46.296;25.290;2022-07-23T13:26:00;37.10;51.90
24614;DHT22;12760;46.296;25.290;2022-07-23T13:28:26;37.10;52.50
24614;DHT22;12760;46.296;25.290;2022-07-23T13:30:52;37.20;52.60
24614;DHT22;12760;46.296;25.290;2022-07-23T13:33:22;37.20;51.90
24614;DHT22;12760;46.296;25.290;2022-07-23T13:35:49;37.20;52.40
24614;DHT22;12760;46.296;25.290;2022-07-23T13:38:16;37.20;52.20
24614;DHT22;12760;46.296;25.290;2022-07-23T13:40:45;37.20;52.30
24614;DHT22;12760;46.296;25.290;2022-07-23T13:43:13;37.10;52.60
24614;DHT22;12760;46.296;25.290;2022-07-23T13:45:40;36.90;51.30
24614;DHT22;12760;46.296;25.290;2022-07-23T13:48:08;37.00;51.20
24614;DHT22;12760;46.296;25.290;2022-07-23T13:50:34;37.00;51.00
24614;DHT22;12760;46.296;25.290;2022-07-23T13:53:04;37.00;53.10
24614;DHT22;12760;46.296;25.290;2022-07-23T13:55:31;37.00;51.40
24614;DHT22;12760;46.296;25.290;2022-07-23T13:57:58;37.00;51.70
24614;DHT22;12760;46.296;25.290;2022-07-23T14:00:24;37.10;52.70
24614;DHT22;12760;46.296;25.290;2022-07-23T14:02:50;37.10;53.00
24614;DHT22;12760;46.296;25.290;2022-07-23T14:05:15;36.80;52.30
24614;DHT22;12760;46.296;25.290;2022-07-23T14:07:41;36.80;53.20
24614;DHT22;12760;46.296;25.290;2022-07-23T14:10:10;36.80;53.40
24614;DHT22;12760;46.296;25.290;2022-07-23T14:12:36;36.70;52.40
24614;DHT22;12760;46.296;25.290;2022-07-23T14:15:05;36.60;52.00
24614;DHT22;12760;46.296;25.290;2022-07-23T14:17:31;36.50;52.60
24614;DHT22;12760;46.296;25.290;2022-07-23T14:19:58;36.40;52.50
24614;DHT22;12760;46.296;25.290;2022-07-23T14:22:24;36.50;53.10
24614;DHT22;12760;46.296;25.290;2022-07-23T14:24:50;36.60;54.00
24614;DHT22;12760;46.296;25.290;2022-07-23T14:27:16;36.70;53.20
24614;DHT22;12760;46.296;25.290;2022-07-23T14:29:42;36.70;53.10
24614;DHT22;12760;46.296;25.290;2022-07-23T14:32:07;36.70;52.20
24614;DHT22;12760;46.296;25.290;2022-07-23T14:34:34;36.70;52.40
24614;DHT22;12760;46.296;25.290;2022-07-23T14:37:00;36.70;52.60
24614;DHT22;12760;46.296;25.290;2022-07-23T14:39:26;36.60;52.40
24614;DHT22;12760;46.296;25.290;2022-07-23T14:41:52;36.70;51.70
24614;DHT22;12760;46.296;25.290;2022-07-23T14:44:18;36.60;52.00
24614;DHT22;12760;46.296;25.290;2022-07-23T14:46:44;36.50;54.60
24614;DHT22;12760;46.296;25.290;2022-07-23T14:49:09;36.40;56.40
24614;DHT22;12760;46.296;25.290;2022-07-23T14:51:36;36.00;57.10
24614;DHT22;12760;46.296;25.290;2022-07-23T14:54:03;35.80;56.70
24614;DHT22;12760;46.296;25.290;2022-07-23T14:56:29;35.70;57.60
24614;DHT22;12760;46.296;25.290;2022-07-23T14:58:54;35.60;56.80
24614;DHT22;12760;46.296;25.290;2022-07-23T15:01:22;35.50;57.20
24614;DHT22;12760;46.296;25.290;2022-07-23T15:03:49;35.60;57.20
24614;DHT22;12760;46.296;25.290;2022-07-23T15:06:16;35.70;56.60
24614;DHT22;12760;46.296;25.290;2022-07-23T15:08:43;35.60;56.80
24614;DHT22;12760;46.296;25.290;2022-07-23T15:11:09;35.70;57.50
24614;DHT22;12760;46.296;25.290;2022-07-23T15:13:36;35.80;57.40
24614;DHT22;12760;46.296;25.290;2022-07-23T15:16:03;35.80;57.20
24614;DHT22;12760;46.296;25.290;2022-07-23T15:18:30;35.90;56.80
24614;DHT22;12760;46.296;25.290;2022-07-23T15:20:55;35.90;56.10
24614;DHT22;12760;46.296;25.290;2022-07-23T15:23:21;35.90;56.10
24614;DHT22;12760;46.296;25.290;2022-07-23T15:25:47;35.90;56.80
24614;DHT22;12760;46.296;25.290;2022-07-23T15:28:13;35.80;58.20
24614;DHT22;12760;46.296;25.290;2022-07-23T15:30:39;35.80;58.60
24614;DHT22;12760;46.296;25.290;2022-07-23T15:33:04;35.70;58.40
24614;DHT22;12760;46.296;25.290;2022-07-23T15:35:31;35.60;58.80
24614;DHT22;12760;46.296;25.290;2022-07-23T15:37:57;35.50;58.30
24614;DHT22;12760;46.296;25.290;2022-07-23T15:40:23;35.50;58.70
24614;DHT22;12760;46.296;25.290;2022-07-23T15:42:49;35.50;58.60
24614;DHT22;12760;46.296;25.290;2022-07-23T15:45:15;35.40;59.40
24614;DHT22;12760;46.296;25.290;2022-07-23T15:47:41;35.50;58.50
24614;DHT22;12760;46.296;25.290;2022-07-23T15:50:08;35.60;58.00
24614;DHT22;12760;46.296;25.290;2022-07-23T15:52:35;35.30;57.00
24614;DHT22;12760;46.296;25.290;2022-07-23T15:55:01;35.20;57.50
24614;DHT22;12760;46.296;25.290;2022-07-23T15:57:27;35.10;57.90
24614;DHT22;12760;46.296;25.290;2022-07-23T15:59:52;35.00;58.50